WetterOnline ( https://www.wetteronline.de )

Wetter aktuell Vreden

Aktuelles Wetter: Ahaus (46m)

6-stündlich | Neueste Meldungen
Ortszeit Temperatur Wetter
Mi, 17.08. 20:00 22.7° C bewölkt
Mi, 17.08. 14:00 25.6° C bedeckt
Mi, 17.08. 8:00 19.5° C bedeckt
Mi, 17.08. 2:00 21.1° C bewölkt
Di, 16.08. 20:00 27.5° C bedeckt
Di, 16.08. 14:00 29.2° C leicht bewölkt
Di, 16.08. 8:00 19.6° C wolkenlos
Di, 16.08. 2:00 20.5° C bedeckt
Ortszeit Temperatur Wetter
Mi, 17.08. 20:30 22.1° C bedeckt
Mi, 17.08. 20:20 22.1° C bedeckt
Mi, 17.08. 20:10 22.3° C bewölkt
Mi, 17.08. 20:00 22.7° C bewölkt
Mi, 17.08. 19:50 22.7° C bewölkt
Mi, 17.08. 19:40 23.1° C bewölkt
Mi, 17.08. 19:30 23.1° C bewölkt
Mi, 17.08. 19:00 23.1° C bedeckt
Mi, 17.08. 18:30 23.2° C wolkig
Mi, 17.08. 18:00 23.4° C wolkig
Mi, 17.08. 17:30 23.0° C wolkig
Ortszeit Relative Feuchte Sichtweite
Mi, 17.08. 20:00 73% 22 km
Mi, 17.08. 14:00 58% 24 km
Mi, 17.08. 8:00 79% 15 km
Mi, 17.08. 2:00 76% 19 km
Di, 16.08. 20:00 40% 45 km
Di, 16.08. 14:00 42% 35 km
Di, 16.08. 8:00 76% 24 km
Di, 16.08. 2:00 80% 23 km
Ortszeit Relative Feuchte Sichtweite
Mi, 17.08. 20:30 75% 22 km
Mi, 17.08. 20:20 75% -
Mi, 17.08. 20:10 74% -
Mi, 17.08. 20:00 73% 22 km
Mi, 17.08. 19:50 73% -
Mi, 17.08. 19:40 72% -
Mi, 17.08. 19:30 74% 17 km
Mi, 17.08. 19:00 72% 22 km
Mi, 17.08. 18:30 72% 20 km
Mi, 17.08. 18:00 71% 19 km
Mi, 17.08. 17:30 72% 18 km
Ortszeit Niederschlagsmenge Niederschlagsart
Mi, 17.08. 20:00 0.1 l/m2 in 12 Std. Regen
Mi, 17.08. 14:00 0.0 l/m2 in 6 Std. -
Mi, 17.08. 8:00 0.1 l/m2 in 12 Std. Regen
Mi, 17.08. 2:00 0.0 l/m2 in 6 Std. -
Di, 16.08. 20:00 0.0 l/m2 in 12 Std. -
Di, 16.08. 14:00 0.0 l/m2 in 6 Std. -
Di, 16.08. 8:00 0.1 l/m2 in 12 Std. -
Di, 16.08. 2:00 0.1 l/m2 in 6 Std. Regen
Ortszeit Niederschlagsmenge Niederschlagsart
Mi, 17.08. 20:30 0.0 l/m2 in 1 Std. -
Mi, 17.08. 20:20 keine Meldung -
Mi, 17.08. 20:10 keine Meldung -
Mi, 17.08. 20:00 0.0 l/m2 in 1 Std. Regen
Mi, 17.08. 19:50 keine Meldung -
Mi, 17.08. 19:40 keine Meldung -
Mi, 17.08. 19:30 0.0 l/m2 in 1 Std. -
Mi, 17.08. 19:00 0.0 l/m2 in 1 Std. -
Mi, 17.08. 18:30 0.0 l/m2 in 1 Std. -
Mi, 17.08. 18:00 0.0 l/m2 in 1 Std. -
Mi, 17.08. 17:30 0.0 l/m2 in 1 Std. -
Ortszeit Stärke Spitze Richtung
km/h Bft. km/h Grad Sektor
Mi, 17.08. 20:00 7 2 22 270° W
Mi, 17.08. 14:00 4 1 22 40° NO
Mi, 17.08. 8:00 7 2 18 70° O
Mi, 17.08. 2:00 4 1 14 40° NO
Di, 16.08. 20:00 6 1 30 300° NW
Di, 16.08. 14:00 15 3 30 220° SW
Di, 16.08. 8:00 11 2 22 200° S
Di, 16.08. 2:00 4 1 11 180° S
Ortszeit Stärke Spitze Richtung
km/h Bft. km/h Grad Sektor
Mi, 17.08. 20:30 7 2 11 290° W
Mi, 17.08. 20:20 7 2 - 290° W
Mi, 17.08. 20:10 6 1 - 280° W
Mi, 17.08. 20:00 7 2 18 270° W
Mi, 17.08. 19:50 7 2 - 270° W
Mi, 17.08. 19:40 7 2 - 260° W
Mi, 17.08. 19:30 7 2 14 250° W
Mi, 17.08. 19:00 9 2 19 310° NW
Mi, 17.08. 18:30 9 2 17 280° W
Mi, 17.08. 18:00 11 2 22 310° NW
Mi, 17.08. 17:30 9 2 20 300° NW
Ortszeit Untergrenze Bedeckung Gattung
total tief tief mittel hoch
Mi, 17.08. 20:00 3000 m 7/8 7/8 - - -
Mi, 17.08. 14:00 3600 m 8/8 8/8 - - -
Mi, 17.08. 8:00 3600 m 8/8 8/8 - - -
Mi, 17.08. 2:00 2400 m 8/8 5/8 - - -
Di, 16.08. 20:00 6300 m 8/8 8/8 - - -
Di, 16.08. 14:00 1500 m 2/8 1/8 - - -
Di, 16.08. 8:00 - 0/8 0/8 - - -
Di, 16.08. 2:00 2700 m 8/8 8/8 - - -
Ortszeit Bedeckungsgrad in Achtel und Wolkenuntergrenze
Mi, 17.08. 20:30 8(3600m) 8(4200m)
Mi, 17.08. 20:20 8(3600m) 8(4200m)
Mi, 17.08. 20:10 7
Mi, 17.08. 20:00 4(3000m) 7(4200m)
Mi, 17.08. 19:50 4(3000m) 7(4200m)
Mi, 17.08. 19:40 7
Mi, 17.08. 19:30 7(3000m)
Mi, 17.08. 19:00 8(3000m)
Mi, 17.08. 18:30 3(780m) 5(1800m) 6(3000m)
Mi, 17.08. 18:00 5(1800m) 6(2400m)
Mi, 17.08. 17:30 4(1800m) 6(6300m) 7(6900m)
Ortszeit Luftdruck NN (hPa) Tendenz (hPa in 3 Std.)
Mi, 17.08. 20:00 1011 + 0,3
Mi, 17.08. 14:00 1010 - 0,2
Mi, 17.08. 8:00 1010 0,0
Mi, 17.08. 2:00 1010 - 0,1
Di, 16.08. 20:00 1009 + 0,4
Di, 16.08. 14:00 1008 + 0,4
Di, 16.08. 8:00 1007 + 0,9
Di, 16.08. 2:00 1006 + 0,4
Ortszeit Luftdruck NN (hPa) Tendenz (hPa in 3 Std.)
Mi, 17.08. 20:30 1011 + 0,9
Mi, 17.08. 20:20 1011 keine Meldung
Mi, 17.08. 20:10 1011 keine Meldung
Mi, 17.08. 20:00 1011 + 0,3
Mi, 17.08. 19:50 1011 keine Meldung
Mi, 17.08. 19:40 1011 keine Meldung
Mi, 17.08. 19:30 1011 + 0,3
Mi, 17.08. 19:00 1011 + 0,3
Mi, 17.08. 18:30 1010 + 0,1
Mi, 17.08. 18:00 1010 - 0,3
Mi, 17.08. 17:30 1010 - 0,2
Ortszeit Schneehöhe (cm)
Mi, 17.08. 20:00 0
Mi, 17.08. 14:00 0
Mi, 17.08. 8:00 0
Mi, 17.08. 2:00 0
Di, 16.08. 20:00 0
Di, 16.08. 14:00 0
Di, 16.08. 8:00 0
Di, 16.08. 2:00 0
Ortszeit Schneehöhe (cm)
Mi, 17.08. 20:30 0
Mi, 17.08. 20:20 0
Mi, 17.08. 20:10 0
Mi, 17.08. 20:00 0
Mi, 17.08. 19:50 0
Mi, 17.08. 19:40 0
Mi, 17.08. 19:30 0
Mi, 17.08. 19:00 0
Mi, 17.08. 18:30 0
Mi, 17.08. 18:00 0
Mi, 17.08. 17:30 0
Link zu dieser Seite / Seite empfehlen

Das Wetter in ...